Time;durP1;ratioP1;P1;durP2;ratioP2;P2;SDS_P1;SDS_P2;PMS_P1;PMS_P2;Temp;Humidity;BMP_temperature;BMP_pressure;BME280_temperature;BME280_humidity;BME280_pressure;Samples;Min_cycle;Max_cycle;Signal;HPM_P1;HPM_P2
2023/08/31 00:00:11;;;;;;;4.60;2.00;;;13.90;99.90;;;;;;4999321;28;20622;-90
2023/08/31 00:02:39;;;;;;;3.53;2.40;;;14.00;99.90;;;;;;4998163;28;20166;-90
2023/08/31 00:05:05;;;;;;;2.60;1.87;;;13.80;99.90;;;;;;5016138;28;20193;-87
2023/08/31 00:07:31;;;;;;;5.77;2.30;;;13.70;99.90;;;;;;4998295;28;20173;-89
2023/08/31 00:09:58;;;;;;;6.03;2.03;;;13.80;99.90;;;;;;5007384;28;20241;-86
2023/08/31 00:12:24;;;;;;;3.40;1.93;;;13.80;99.90;;;;;;5010450;28;20309;-90
2023/08/31 00:14:53;;;;;;;5.80;2.20;;;13.80;99.90;;;;;;5000126;28;20334;-88
2023/08/31 00:17:18;;;;;;;3.80;2.33;;;13.90;99.90;;;;;;4998558;28;20178;-91
2023/08/31 00:19:44;;;;;;;4.47;2.17;;;13.80;99.90;;;;;;5016560;28;20185;-88
2023/08/31 00:22:10;;;;;;;4.13;2.53;;;13.90;99.90;;;;;;5001648;28;20692;-91
2023/08/31 00:24:36;;;;;;;3.07;2.10;;;14.00;99.90;;;;;;5019112;28;20237;-87
2023/08/31 00:27:03;;;;;;;5.20;2.40;;;13.90;99.90;;;;;;5003072;28;20700;-87
2023/08/31 00:29:30;;;;;;;3.83;2.40;;;14.00;99.90;;;;;;5004376;28;20167;-90
2023/08/31 00:31:57;;;;;;;3.57;2.30;;;14.00;99.90;;;;;;5002538;28;20178;-89
2023/08/31 00:34:22;;;;;;;3.37;2.43;;;14.00;99.90;;;;;;5003840;28;20177;-91
2023/08/31 00:36:48;;;;;;;4.03;2.27;;;14.00;99.90;;;;;;5006227;28;20174;-88
2023/08/31 00:39:14;;;;;;;5.30;2.37;;;14.10;99.90;;;;;;5001329;28;20481;-88
2023/08/31 00:41:40;;;;;;;5.33;2.63;;;14.20;99.90;;;;;;4997778;28;20236;-90
2023/08/31 00:44:07;;;;;;;3.80;2.43;;;14.30;99.90;;;;;;4998181;28;20174;-91
2023/08/31 00:46:34;;;;;;;4.67;2.90;;;14.30;99.90;;;;;;4997504;28;20646;-86
2023/08/31 00:49:00;;;;;;;3.40;2.40;;;14.30;99.90;;;;;;4997227;28;20276;-85
2023/08/31 00:51:26;;;;;;;4.60;2.80;;;14.30;99.90;;;;;;4997027;28;20610;-87
2023/08/31 00:53:58;;;;;;;4.20;2.83;;;14.20;99.90;;;;;;5014459;28;20533;-87
2023/08/31 00:56:25;;;;;;;5.73;2.93;;;14.10;99.90;;;;;;4996907;28;20236;-87
2023/08/31 00:58:50;;;;;;;5.80;3.17;;;14.20;99.90;;;;;;4996854;28;20272;-85
2023/08/31 01:01:43;;;;;;;5.30;3.23;;;14.20;99.90;;;;;;5014064;28;20634;-85
2023/08/31 01:04:22;;;;;;;5.50;2.90;;;14.20;99.90;;;;;;4997222;28;20197;-87
2023/08/31 01:07:02;;;;;;;4.67;2.90;;;14.10;99.90;;;;;;4997049;28;20193;-85
2023/08/31 01:09:55;;;;;;;4.57;2.80;;;14.10;99.90;;;;;;4997239;28;20265;-85
2023/08/31 01:12:34;;;;;;;4.27;2.70;;;14.10;99.90;;;;;;4996941;28;20281;-88
2023/08/31 01:15:04;;;;;;;6.77;3.40;;;14.20;99.90;;;;;;5015502;28;20254;-86
2023/08/31 01:17:32;;;;;;;4.83;2.87;;;14.20;99.90;;;;;;5016684;28;20190;-83
2023/08/31 01:20:00;;;;;;;4.80;3.27;;;14.20;99.90;;;;;;5006980;28;20208;-84
2023/08/31 01:22:40;;;;;;;5.07;2.80;;;14.20;99.90;;;;;;5007487;28;20498;-83
2023/08/31 01:25:12;;;;;;;4.70;3.10;;;14.20;99.90;;;;;;5000763;28;20190;-85
2023/08/31 01:27:41;;;;;;;4.27;2.70;;;14.20;99.90;;;;;;4997210;28;20178;-87
2023/08/31 01:30:18;;;;;;;4.37;2.97;;;14.30;99.90;;;;;;4997095;28;20174;-85
2023/08/31 01:32:45;;;;;;;4.50;3.03;;;14.20;99.90;;;;;;5014479;28;20163;-86
2023/08/31 01:35:12;;;;;;;3.80;2.83;;;14.20;99.90;;;;;;5014361;28;20245;-87
2023/08/31 01:37:45;;;;;;;5.50;2.83;;;14.20;99.90;;;;;;4996587;28;20178;-84
2023/08/31 01:40:17;;;;;;;5.23;2.93;;;14.10;99.90;;;;;;4996182;28;20186;-83
2023/08/31 01:42:44;;;;;;;3.80;3.07;;;14.10;99.90;;;;;;4996682;28;20269;-85
2023/08/31 01:45:13;;;;;;;8.60;3.17;;;14.20;99.90;;;;;;4998322;28;20179;-85
2023/08/31 01:47:38;;;;;;;8.10;3.10;;;14.20;99.90;;;;;;5016360;28;20182;-85
2023/08/31 01:50:04;;;;;;;4.93;3.27;;;14.20;99.90;;;;;;5015788;28;20324;-85
2023/08/31 01:52:30;;;;;;;5.73;3.40;;;14.20;99.90;;;;;;5020447;28;20168;-86
2023/08/31 01:54:56;;;;;;;4.87;3.23;;;14.10;99.90;;;;;;5019265;28;20169;-87
2023/08/31 01:57:22;;;;;;;7.00;3.33;;;14.20;99.90;;;;;;5007997;28;20183;-88
2023/08/31 01:59:48;;;;;;;5.47;3.57;;;14.30;99.90;;;;;;5014945;28;20178;-88
2023/08/31 02:02:16;;;;;;;7.87;3.57;;;14.30;99.90;;;;;;4997317;28;20245;-88
2023/08/31 02:04:43;;;;;;;6.63;3.40;;;14.20;99.90;;;;;;5014227;28;20185;-89
2023/08/31 02:07:08;;;;;;;7.70;3.53;;;14.20;99.90;;;;;;4996709;28;20619;-88
2023/08/31 02:09:34;;;;;;;6.47;3.30;;;14.20;99.90;;;;;;4996786;28;20201;-88
2023/08/31 02:12:00;;;;;;;5.03;3.30;;;14.20;99.90;;;;;;4996022;28;20276;-88
2023/08/31 02:14:26;;;;;;;8.80;3.27;;;14.20;99.90;;;;;;4996577;28;20288;-89
2023/08/31 02:16:52;;;;;;;6.07;2.90;;;14.20;99.90;;;;;;4996542;28;20275;-88
2023/08/31 02:19:18;;;;;;;4.43;2.90;;;14.20;99.90;;;;;;5014466;28;20618;-88
2023/08/31 02:21:44;;;;;;;3.53;2.80;;;14.10;99.90;;;;;;5014197;28;20237;-88
2023/08/31 02:24:09;;;;;;;6.90;3.13;;;14.10;99.90;;;;;;5014141;28;20197;-88
2023/08/31 02:26:37;;;;;;;5.33;2.67;;;14.00;99.90;;;;;;5014545;28;20167;-89
2023/08/31 02:29:03;;;;;;;5.00;3.10;;;14.10;99.90;;;;;;4997411;28;20184;-87
2023/08/31 02:31:30;;;;;;;3.70;2.50;;;14.10;99.90;;;;;;5018116;28;20258;-88
2023/08/31 02:33:55;;;;;;;4.57;2.67;;;14.00;99.90;;;;;;5000257;28;20181;-88
2023/08/31 02:36:21;;;;;;;5.40;2.53;;;14.00;99.90;;;;;;5000390;28;20186;-88
2023/08/31 02:38:47;;;;;;;6.83;3.13;;;14.00;99.90;;;;;;5000939;28;20221;-88
2023/08/31 02:41:13;;;;;;;5.07;2.63;;;14.00;99.90;;;;;;4999425;28;20186;-88
2023/08/31 02:43:39;;;;;;;5.60;2.90;;;14.00;99.90;;;;;;5000680;28;20700;-89
2023/08/31 02:46:05;;;;;;;6.37;3.00;;;14.00;99.90;;;;;;5000849;28;20174;-89
2023/08/31 02:48:32;;;;;;;4.37;2.63;;;14.10;99.90;;;;;;5000363;28;20685;-88
2023/08/31 02:51:02;;;;;;;4.77;2.70;;;14.10;99.90;;;;;;4999771;28;20176;-88
2023/08/31 02:53:32;;;;;;;3.80;2.60;;;14.00;99.90;;;;;;5000290;28;20204;-88
2023/08/31 02:55:58;;;;;;;6.37;3.00;;;14.10;99.90;;;;;;5000273;28;20174;-88
2023/08/31 02:58:24;;;;;;;5.03;2.60;;;14.10;99.90;;;;;;4999769;28;20228;-89
2023/08/31 03:00:50;;;;;;;4.60;3.00;;;14.20;99.90;;;;;;5017098;28;20159;-89
2023/08/31 03:03:17;;;;;;;5.10;2.80;;;14.10;99.90;;;;;;4999477;28;20175;-89
2023/08/31 03:05:44;;;;;;;4.47;2.80;;;14.10;99.90;;;;;;4999387;28;20646;-89
2023/08/31 03:08:10;;;;;;;5.47;2.73;;;14.10;99.90;;;;;;4999973;28;20515;-89
2023/08/31 03:10:36;;;;;;;3.83;2.70;;;14.10;99.90;;;;;;5017194;28;20596;-88
2023/08/31 03:13:02;;;;;;;6.20;3.17;;;14.10;99.90;;;;;;5000482;28;20348;-88
2023/08/31 03:15:28;;;;;;;6.07;2.73;;;14.10;99.90;;;;;;4999443;28;20709;-86
2023/08/31 03:17:54;;;;;;;4.67;2.90;;;14.10;99.90;;;;;;5022117;28;20208;-84
2023/08/31 03:20:20;;;;;;;5.70;3.50;;;14.10;99.90;;;;;;5009574;28;20214;-83
2023/08/31 03:22:45;;;;;;;4.57;2.60;;;14.20;99.90;;;;;;5015089;28;20174;-82
2023/08/31 03:25:11;;;;;;;5.60;2.90;;;14.20;99.90;;;;;;5000333;28;20189;-84
2023/08/31 03:27:41;;;;;;;5.60;2.93;;;14.20;99.90;;;;;;5008184;28;20547;-83
2023/08/31 03:30:07;;;;;;;4.70;2.73;;;14.10;99.90;;;;;;5000176;28;20206;-87
2023/08/31 03:32:53;;;;;;;6.07;2.87;;;14.10;99.90;;;;;;5015854;28;20546;-88
2023/08/31 03:35:19;;;;;;;4.27;2.67;;;14.10;99.90;;;;;;5000113;28;20178;-88
2023/08/31 03:37:48;;;;;;;7.37;3.10;;;14.10;99.90;;;;;;4999263;28;20295;-84
2023/08/31 03:40:14;;;;;;;5.13;2.83;;;14.10;99.90;;;;;;4998578;28;20241;-87
2023/08/31 03:42:39;;;;;;;4.40;2.60;;;14.10;99.90;;;;;;4999165;28;20186;-84
2023/08/31 03:45:06;;;;;;;5.33;3.13;;;14.00;99.90;;;;;;4998692;28;20205;-85
2023/08/31 03:47:31;;;;;;;5.93;2.90;;;14.10;99.90;;;;;;4998050;28;20241;-84
2023/08/31 03:49:57;;;;;;;6.13;2.73;;;14.00;99.90;;;;;;4998002;28;20193;-84
2023/08/31 03:52:23;;;;;;;6.20;2.73;;;14.00;99.90;;;;;;4998872;28;20631;-84
2023/08/31 03:54:49;;;;;;;5.03;2.67;;;14.00;99.90;;;;;;5016069;28;20186;-85
2023/08/31 03:57:15;;;;;;;5.33;2.53;;;13.90;99.90;;;;;;4997499;28;20175;-85
2023/08/31 03:59:40;;;;;;;3.77;2.80;;;13.90;99.90;;;;;;5015128;28;20229;-89
2023/08/31 04:02:06;;;;;;;4.80;2.80;;;13.90;99.90;;;;;;5016417;28;20167;-87
2023/08/31 04:04:32;;;;;;;4.67;3.00;;;13.90;99.90;;;;;;4998638;28;20638;-88
2023/08/31 04:06:58;;;;;;;4.93;3.03;;;13.90;99.90;;;;;;4998982;28;20641;-88
2023/08/31 04:09:24;;;;;;;5.83;2.73;;;13.90;99.90;;;;;;4999063;28;20175;-89
2023/08/31 04:11:49;;;;;;;4.77;3.30;;;13.90;99.90;;;;;;4999288;28;20185;-85
2023/08/31 04:14:15;;;;;;;6.50;3.10;;;13.90;99.90;;;;;;4998894;28;20720;-88
2023/08/31 04:16:41;;;;;;;6.60;3.67;;;13.90;99.90;;;;;;5016484;28;20249;-89
2023/08/31 04:19:06;;;;;;;4.73;3.13;;;13.90;99.90;;;;;;5000171;28;20678;-89
2023/08/31 04:21:32;;;;;;;4.80;2.90;;;13.90;99.90;;;;;;4999084;28;20217;-88
2023/08/31 04:24:00;;;;;;;7.23;3.53;;;13.90;99.90;;;;;;4999539;28;20185;-88
2023/08/31 04:26:26;;;;;;;6.27;3.90;;;13.80;99.90;;;;;;4997092;28;20619;-88
2023/08/31 04:28:51;;;;;;;5.47;3.20;;;13.90;99.90;;;;;;5015630;28;20328;-87
2023/08/31 04:31:17;;;;;;;5.87;3.60;;;13.80;99.90;;;;;;5001270;28;20174;-89
2023/08/31 04:33:43;;;;;;;4.53;2.93;;;13.80;99.90;;;;;;5002079;28;20657;-88
2023/08/31 04:36:09;;;;;;;8.37;3.63;;;13.90;99.90;;;;;;5002743;28;20677;-88
2023/08/31 04:38:37;;;;;;;6.93;3.83;;;13.80;99.90;;;;;;5001936;28;20209;-88
2023/08/31 04:41:03;;;;;;;6.83;3.40;;;13.80;99.90;;;;;;5002493;28;20649;-89
2023/08/31 04:43:29;;;;;;;7.63;3.27;;;13.80;99.90;;;;;;5004006;28;20185;-88
2023/08/31 04:45:55;;;;;;;5.97;3.37;;;13.80;99.90;;;;;;4998833;28;20180;-88
2023/08/31 04:48:21;;;;;;;6.53;3.90;;;13.70;99.90;;;;;;4997608;28;20231;-83
2023/08/31 04:50:47;;;;;;;11.50;3.90;;;13.70;99.90;;;;;;4997432;28;20174;-83
2023/08/31 04:53:13;;;;;;;7.37;3.33;;;13.80;99.90;;;;;;4997045;28;20543;-86
2023/08/31 04:55:39;;;;;;;7.53;3.50;;;13.80;99.90;;;;;;4997197;28;20174;-82
2023/08/31 04:58:05;;;;;;;5.50;3.50;;;13.80;99.90;;;;;;5014495;28;20202;-84
2023/08/31 05:00:31;;;;;;;7.57;4.10;;;13.70;99.90;;;;;;5014711;28;20192;-83
2023/08/31 05:02:57;;;;;;;6.57;3.43;;;13.70;99.90;;;;;;5013494;28;20270;-84
2023/08/31 05:05:23;;;;;;;4.30;3.50;;;13.70;99.90;;;;;;4999485;28;20649;-83
2023/08/31 05:07:49;;;;;;;6.63;3.80;;;13.70;99.90;;;;;;4999146;28;20261;-84
2023/08/31 05:10:14;;;;;;;6.17;3.50;;;13.70;99.90;;;;;;4997275;28;20206;-83
2023/08/31 05:12:40;;;;;;;6.17;3.70;;;13.70;99.90;;;;;;4996928;28;20181;-82
2023/08/31 05:15:06;;;;;;;5.60;3.53;;;13.70;99.90;;;;;;4996615;28;20194;-83
2023/08/31 05:17:33;;;;;;;6.03;3.60;;;13.70;99.90;;;;;;4996206;28;20262;-84
2023/08/31 05:19:59;;;;;;;6.17;3.33;;;13.70;99.90;;;;;;4996331;28;20177;-84
2023/08/31 05:22:25;;;;;;;8.03;3.70;;;13.70;99.90;;;;;;4997542;28;20225;-84
2023/08/31 05:24:51;;;;;;;5.03;3.57;;;13.70;99.90;;;;;;4997155;28;20182;-84
2023/08/31 05:27:16;;;;;;;5.23;3.00;;;13.80;99.90;;;;;;5015247;28;20541;-83
2023/08/31 05:29:42;;;;;;;5.93;3.57;;;13.70;99.90;;;;;;4997515;28;20587;-83
2023/08/31 05:32:07;;;;;;;5.97;3.67;;;13.80;99.90;;;;;;5015249;28;20737;-86
2023/08/31 05:34:37;;;;;;;5.97;3.77;;;13.90;99.90;;;;;;4996454;28;20630;-84
2023/08/31 05:37:04;;;;;;;6.40;3.90;;;13.80;99.90;;;;;;4996004;28;20245;-84
2023/08/31 05:39:30;;;;;;;8.20;3.97;;;13.90;99.90;;;;;;5012527;28;20260;-82
2023/08/31 05:41:56;;;;;;;6.73;3.97;;;13.90;99.90;;;;;;4996199;28;20190;-86
2023/08/31 05:44:23;;;;;;;7.93;4.20;;;13.90;99.90;;;;;;5031653;28;20175;-86
2023/08/31 05:46:49;;;;;;;7.07;3.77;;;13.90;99.90;;;;;;5037053;28;20175;-88
2023/08/31 05:49:14;;;;;;;6.20;3.60;;;13.90;99.90;;;;;;5003503;28;20549;-92
2023/08/31 05:51:40;;;;;;;7.07;3.73;;;13.90;99.90;;;;;;5016552;28;20229;-89
2023/08/31 05:54:10;;;;;;;6.83;3.90;;;13.90;99.90;;;;;;5009145;28;20575;-90
2023/08/31 05:56:39;;;;;;;11.70;4.00;;;13.80;99.90;;;;;;4996998;28;20594;-88
2023/08/31 05:59:08;;;;;;;10.33;3.83;;;13.90;99.90;;;;;;5014873;28;20213;-88
2023/08/31 06:01:37;;;;;;;10.63;3.87;;;13.80;99.90;;;;;;4997117;28;20224;-89
2023/08/31 06:04:03;;;;;;;12.60;4.40;;;13.80;99.90;;;;;;4996180;28;20312;-85
2023/08/31 06:06:29;;;;;;;7.73;3.70;;;14.00;99.90;;;;;;5014898;28;20173;-87
2023/08/31 06:08:56;;;;;;;9.67;3.57;;;14.40;99.90;;;;;;4996628;28;20182;-86
2023/08/31 06:11:22;;;;;;;9.43;4.00;;;14.60;99.90;;;;;;4996248;28;20178;-85
2023/08/31 06:13:47;;;;;;;8.47;3.40;;;14.80;99.90;;;;;;5000709;28;20209;-83
2023/08/31 06:16:13;;;;;;;8.60;3.80;;;15.00;99.90;;;;;;5011290;28;20177;-85
2023/08/31 06:18:39;;;;;;;8.60;3.80;;;15.00;99.90;;;;;;5013909;28;20210;-85
2023/08/31 06:21:05;;;;;;;10.20;4.03;;;15.00;99.90;;;;;;5033902;28;20158;-86
2023/08/31 06:23:31;;;;;;;8.90;3.87;;;14.90;99.90;;;;;;5014068;28;20210;-83
2023/08/31 06:25:57;;;;;;;8.93;3.50;;;14.70;99.90;;;;;;5006305;28;20178;-87
2023/08/31 06:28:25;;;;;;;8.73;3.73;;;14.70;99.90;;;;;;4999593;28;20741;-87
2023/08/31 06:31:04;;;;;;;11.93;3.63;;;14.60;99.90;;;;;;4997668;28;20233;-90
2023/08/31 06:33:30;;;;;;;10.57;3.77;;;14.60;99.90;;;;;;5015777;28;20178;-87
2023/08/31 06:35:56;;;;;;;12.17;3.93;;;14.60;99.90;;;;;;4999294;28;20174;-89
2023/08/31 06:38:21;;;;;;;13.50;4.00;;;14.70;99.90;;;;;;4997177;28;20281;-89
2023/08/31 06:40:47;;;;;;;9.10;3.67;;;14.60;99.90;;;;;;4998284;28;20190;-88
2023/08/31 06:43:13;;;;;;;11.00;3.90;;;14.70;99.90;;;;;;5004349;28;20652;-87
2023/08/31 06:45:40;;;;;;;10.27;4.10;;;14.80;99.90;;;;;;5010931;28;20182;-88
2023/08/31 06:48:05;;;;;;;11.67;3.63;;;14.80;99.90;;;;;;5016450;28;20167;-84
2023/08/31 06:50:35;;;;;;;10.10;3.70;;;14.90;99.90;;;;;;4996012;28;20197;-83
2023/08/31 06:53:01;;;;;;;10.83;4.23;;;14.90;99.90;;;;;;4999665;28;20254;-83
2023/08/31 06:55:26;;;;;;;13.43;4.03;;;14.90;99.90;;;;;;5006794;28;20174;-83
2023/08/31 06:57:52;;;;;;;9.33;3.43;;;14.90;99.90;;;;;;5008519;28;20202;-82
2023/08/31 07:00:18;;;;;;;14.40;3.67;;;15.00;99.90;;;;;;5029197;28;20173;-82
2023/08/31 07:02:45;;;;;;;9.00;4.13;;;15.00;99.90;;;;;;5003302;28;20216;-83
2023/08/31 07:05:11;;;;;;;13.27;4.20;;;15.00;99.90;;;;;;4998507;28;20171;-84
2023/08/31 07:07:38;;;;;;;9.10;3.90;;;15.10;99.90;;;;;;4997588;28;20185;-83
2023/08/31 07:10:05;;;;;;;7.63;4.13;;;15.10;99.90;;;;;;4996987;28;20197;-83
2023/08/31 07:12:31;;;;;;;9.00;3.87;;;15.20;99.90;;;;;;4996040;28;20178;-85
2023/08/31 07:14:57;;;;;;;9.87;3.80;;;15.20;99.90;;;;;;4996569;28;20285;-85
2023/08/31 07:17:23;;;;;;;8.23;4.13;;;15.30;99.90;;;;;;4999702;28;20506;-84
2023/08/31 07:19:49;;;;;;;7.87;3.53;;;15.20;99.90;;;;;;5017568;28;20220;-87
2023/08/31 07:22:15;;;;;;;10.23;4.10;;;15.30;99.90;;;;;;4999932;28;20179;-88
2023/08/31 07:24:41;;;;;;;7.00;3.17;;;15.40;99.90;;;;;;4999997;28;20246;-85
2023/08/31 07:27:06;;;;;;;9.20;4.00;;;15.60;99.90;;;;;;5017342;28;20175;-89
2023/08/31 07:29:33;;;;;;;10.07;3.70;;;15.70;99.90;;;;;;4999907;28;20180;-88
2023/08/31 07:31:58;;;;;;;8.17;3.70;;;15.60;99.90;;;;;;5000114;28;20324;-87
2023/08/31 07:34:26;;;;;;;9.83;3.80;;;15.50;99.90;;;;;;4999266;28;20221;-86
2023/08/31 07:36:53;;;;;;;12.27;4.27;;;15.50;99.90;;;;;;5016413;28;20715;-85
2023/08/31 07:39:19;;;;;;;9.00;4.10;;;15.50;99.90;;;;;;4999505;28;20214;-88
2023/08/31 07:41:44;;;;;;;10.10;4.37;;;15.50;99.90;;;;;;4999229;28;20266;-86
2023/08/31 07:44:10;;;;;;;10.97;4.17;;;15.60;99.90;;;;;;4999331;28;20249;-87
2023/08/31 07:46:36;;;;;;;7.97;4.27;;;15.60;99.90;;;;;;4999876;28;20179;-87
2023/08/31 07:49:02;;;;;;;8.10;4.10;;;15.70;99.90;;;;;;4999527;28;20209;-85
2023/08/31 07:51:28;;;;;;;13.07;4.97;;;15.80;99.90;;;;;;4999315;28;20178;-85
2023/08/31 07:53:54;;;;;;;9.10;3.87;;;15.70;99.90;;;;;;4999651;28;20182;-87
2023/08/31 07:56:20;;;;;;;10.30;3.80;;;15.90;99.90;;;;;;4998493;28;20273;-85
2023/08/31 07:58:45;;;;;;;9.33;4.50;;;16.10;99.90;;;;;;4998107;28;20237;-85
2023/08/31 08:01:11;;;;;;;8.80;3.73;;;16.10;99.90;;;;;;4998389;28;20272;-84
2023/08/31 08:03:37;;;;;;;10.13;4.57;;;16.00;99.90;;;;;;4997996;28;20646;-85
2023/08/31 08:06:03;;;;;;;7.50;4.30;;;16.10;99.90;;;;;;4998294;28;20633;-84
2023/08/31 08:08:29;;;;;;;9.00;3.97;;;16.20;99.90;;;;;;4998675;28;20180;-83
2023/08/31 08:10:55;;;;;;;11.10;4.50;;;16.20;99.90;;;;;;4998161;28;20196;-86
2023/08/31 08:13:21;;;;;;;7.87;3.87;;;16.30;99.90;;;;;;4998400;28;20266;-84
2023/08/31 08:15:46;;;;;;;9.90;3.90;;;16.40;99.90;;;;;;4998096;28;20661;-86
2023/08/31 08:18:13;;;;;;;11.53;4.73;;;16.40;99.90;;;;;;5016215;28;20198;-88
2023/08/31 08:20:39;;;;;;;10.33;3.87;;;16.50;99.90;;;;;;5014931;28;20170;-85
2023/08/31 08:23:07;;;;;;;7.17;3.93;;;16.50;99.90;;;;;;5019467;28;20167;-88
2023/08/31 08:25:34;;;;;;;8.80;4.03;;;16.60;99.90;;;;;;5000344;28;20179;-87
2023/08/31 08:27:59;;;;;;;8.50;3.30;;;16.70;99.90;;;;;;5017913;28;20166;-85
2023/08/31 08:30:25;;;;;;;7.60;3.80;;;16.90;99.90;;;;;;5004389;28;20177;-86
2023/08/31 08:32:51;;;;;;;11.17;4.17;;;16.90;99.90;;;;;;5008544;28;20178;-87
2023/08/31 08:35:17;;;;;;;9.17;3.87;;;16.90;99.90;;;;;;5030226;28;20173;-90
2023/08/31 08:37:43;;;;;;;12.07;3.87;;;17.00;99.90;;;;;;5011384;28;20259;-87
2023/08/31 08:40:10;;;;;;;10.23;4.17;;;17.00;99.90;;;;;;5021993;28;20217;-86
2023/08/31 08:42:41;;;;;;;11.23;4.77;;;17.10;99.90;;;;;;5028098;28;20199;-85
2023/08/31 08:45:15;;;;;;;9.47;4.47;;;17.30;99.90;;;;;;5008836;28;20177;-87
2023/08/31 08:47:42;;;;;;;10.90;4.63;;;17.40;99.90;;;;;;5025560;28;20185;-90
2023/08/31 08:50:09;;;;;;;9.63;3.90;;;17.60;99.90;;;;;;5004975;28;20705;-84
2023/08/31 08:52:35;;;;;;;7.43;3.83;;;17.60;99.90;;;;;;5001584;28;20181;-85
2023/08/31 08:55:02;;;;;;;7.67;4.20;;;17.50;99.90;;;;;;5001803;28;20765;-85
2023/08/31 08:57:30;;;;;;;11.20;4.13;;;17.50;99.90;;;;;;5006119;28;20170;-86
2023/08/31 08:59:57;;;;;;;9.33;4.90;;;17.50;99.90;;;;;;5002470;28;20246;-85
2023/08/31 09:02:22;;;;;;;7.87;4.27;;;17.50;99.90;;;;;;5003913;28;20553;-85
2023/08/31 09:04:49;;;;;;;9.03;3.77;;;17.60;99.90;;;;;;5004512;28;20269;-88
2023/08/31 09:07:14;;;;;;;8.17;3.97;;;17.80;99.90;;;;;;5007056;28;20269;-88
2023/08/31 09:09:53;;;;;;;7.97;3.60;;;17.90;99.90;;;;;;5018564;28;20220;-87
2023/08/31 09:12:24;;;;;;;7.07;3.53;;;17.80;99.90;;;;;;5002299;28;20173;-85
2023/08/31 09:15:00;;;;;;;8.63;3.47;;;17.80;99.90;;;;;;5000212;28;20214;-88
2023/08/31 09:17:26;;;;;;;11.13;3.90;;;17.80;99.90;;;;;;4984581;28;20187;-85
2023/08/31 09:20:03;;;;;;;9.73;3.70;;;17.80;99.90;;;;;;4999355;28;20295;-88
2023/08/31 09:22:29;;;;;;;8.77;3.67;;;17.90;99.90;;;;;;5016037;28;20162;-86
2023/08/31 09:24:55;;;;;;;7.37;3.87;;;18.00;99.90;;;;;;4998011;28;20637;-87
2023/08/31 09:27:22;;;;;;;6.93;3.27;;;18.10;99.90;;;;;;5015280;28;20740;-88
2023/08/31 09:29:48;;;;;;;7.40;3.80;;;18.30;99.90;;;;;;4997795;28;20175;-87
2023/08/31 09:32:18;;;;;;;13.73;4.00;;;18.40;99.90;;;;;;4998166;28;20265;-89
2023/08/31 09:34:44;;;;;;;9.70;3.40;;;18.70;99.90;;;;;;4998154;28;20242;-88
2023/08/31 09:37:09;;;;;;;7.47;3.63;;;18.90;99.90;;;;;;4997693;28;20172;-87
2023/08/31 09:39:39;;;;;;;8.10;3.50;;;18.80;99.90;;;;;;4995952;28;20653;-87
2023/08/31 09:42:05;;;;;;;8.27;3.30;;;18.90;99.90;;;;;;4999590;28;20263;-84
2023/08/31 09:44:31;;;;;;;6.00;3.80;;;19.20;99.90;;;;;;5001111;28;20178;-83
2023/08/31 09:46:57;;;;;;;9.20;3.30;;;19.10;99.90;;;;;;4983334;28;20268;-86
2023/08/31 09:49:24;;;;;;;7.77;3.73;;;19.10;99.90;;;;;;4998102;28;20201;-87
2023/08/31 09:51:52;;;;;;;8.57;3.73;;;19.00;99.90;;;;;;4998997;28;20180;-87
2023/08/31 09:54:21;;;;;;;9.67;3.57;;;19.10;99.90;;;;;;5004422;28;20178;-87
2023/08/31 09:56:48;;;;;;;6.83;3.20;;;19.20;99.90;;;;;;5013064;28;20654;-84
2023/08/31 09:59:19;;;;;;;8.07;4.03;;;19.20;99.90;;;;;;4999122;28;20265;-86
2023/08/31 10:01:46;;;;;;;9.37;3.93;;;19.30;99.90;;;;;;5014559;28;20565;-84
2023/08/31 10:04:13;;;;;;;8.27;3.67;;;19.20;99.90;;;;;;4997850;28;20220;-85
2023/08/31 10:06:40;;;;;;;7.30;3.60;;;19.20;99.90;;;;;;4996577;28;20183;-86
2023/08/31 10:09:06;;;;;;;6.37;3.53;;;19.10;99.90;;;;;;5024172;28;20169;-83
2023/08/31 10:11:33;;;;;;;7.47;3.97;;;19.10;99.90;;;;;;5019069;28;20187;-85
2023/08/31 10:14:00;;;;;;;8.93;3.70;;;19.10;99.90;;;;;;5012534;28;20207;-82
2023/08/31 10:16:29;;;;;;;7.77;3.97;;;19.00;99.90;;;;;;5002916;28;20177;-85
2023/08/31 10:18:56;;;;;;;8.53;3.63;;;19.00;99.90;;;;;;5001027;28;20214;-89
2023/08/31 10:21:25;;;;;;;7.30;3.87;;;18.90;99.90;;;;;;4996669;28;20246;-84
2023/08/31 10:23:54;;;;;;;6.60;3.53;;;19.10;99.90;;;;;;4995875;28;20180;-83
2023/08/31 10:26:26;;;;;;;6.47;3.33;;;19.30;99.90;;;;;;5016546;28;20311;-86
2023/08/31 10:28:59;;;;;;;8.70;3.20;;;19.40;99.90;;;;;;4998565;28;20182;-87
2023/08/31 10:31:29;;;;;;;7.40;3.77;;;19.40;99.90;;;;;;4998520;28;20247;-87
2023/08/31 10:33:58;;;;;;;8.63;3.63;;;19.40;99.90;;;;;;4997706;28;20270;-89
2023/08/31 10:36:45;;;;;;;6.17;3.70;;;19.30;99.90;;;;;;4997204;28;20200;-87
2023/08/31 10:39:13;;;;;;;6.33;3.33;;;19.20;99.90;;;;;;5002053;28;20210;-88
2023/08/31 10:41:39;;;;;;;5.17;3.30;;;19.20;99.90;;;;;;5018957;28;20193;-85
2023/08/31 10:44:25;;;;;;;7.00;2.80;;;19.30;99.90;;;;;;5035154;28;20157;-86
2023/08/31 10:46:52;;;;;;;6.10;2.90;;;19.40;99.90;;;;;;5018268;28;20178;-86
2023/08/31 10:49:20;;;;;;;6.47;3.00;;;19.60;99.90;;;;;;5019408;28;20220;-84
2023/08/31 10:52:18;;;;;;;8.20;2.57;;;19.60;99.90;;;;;;5023026;28;20172;-85
2023/08/31 10:54:54;;;;;;;5.30;3.03;;;19.70;99.90;;;;;;5016194;28;20169;-84
2023/08/31 10:57:45;;;;;;;8.27;3.27;;;19.80;99.90;;;;;;5017636;28;20170;-88
2023/08/31 11:00:52;;;;;;;6.70;2.43;;;19.90;99.90;;;;;;5021774;28;20174;-88
2023/08/31 11:03:20;;;;;;;7.23;2.40;;;20.00;99.90;;;;;;5002347;28;20170;-91
2023/08/31 11:05:52;;;;;;;6.10;2.47;;;20.00;99.90;;;;;;5001964;28;20208;-90
2023/08/31 11:08:25;;;;;;;6.90;2.27;;;20.00;99.90;;;;;;5002549;28;20169;-89
2023/08/31 11:10:52;;;;;;;7.90;2.50;;;19.80;99.90;;;;;;5002782;28;20221;-89
2023/08/31 11:13:23;;;;;;;6.70;2.53;;;19.60;99.90;;;;;;5001914;28;20195;-86
2023/08/31 11:15:49;;;;;;;8.47;2.30;;;19.60;99.90;;;;;;4998839;28;20179;-85
2023/08/31 11:18:17;;;;;;;5.07;2.33;;;19.50;99.90;;;;;;4998743;28;20279;-86
2023/08/31 11:20:43;;;;;;;5.07;2.10;;;19.50;99.90;;;;;;4998668;28;20182;-86
2023/08/31 11:23:09;;;;;;;5.93;2.30;;;19.50;99.90;;;;;;4999245;28;20184;-85
2023/08/31 11:25:36;;;;;;;6.43;2.40;;;19.50;99.90;;;;;;4998666;28;20177;-86
2023/08/31 11:28:11;;;;;;;6.97;2.50;;;19.70;99.90;;;;;;5016852;28;20637;-85
2023/08/31 11:30:37;;;;;;;6.27;2.70;;;19.70;99.90;;;;;;5006796;28;20219;-85
2023/08/31 11:33:11;;;;;;;7.07;2.40;;;19.70;99.90;;;;;;5022323;28;20181;-86
2023/08/31 11:35:46;;;;;;;7.30;2.43;;;19.70;99.90;;;;;;4998643;28;20173;-85
2023/08/31 11:38:12;;;;;;;7.43;2.43;;;19.70;99.90;;;;;;4997931;28;20205;-86
2023/08/31 11:40:38;;;;;;;5.87;2.03;;;19.90;99.90;;;;;;5015765;28;20652;-85
2023/08/31 11:43:07;;;;;;;5.37;1.83;;;20.10;99.90;;;;;;5015979;28;20172;-85
2023/08/31 11:45:34;;;;;;;4.20;1.50;;;20.10;99.90;;;;;;4998239;28;20178;-86
2023/08/31 11:48:00;;;;;;;5.23;2.23;;;20.20;99.90;;;;;;4997780;28;20207;-85
2023/08/31 11:50:28;;;;;;;3.33;1.80;;;20.10;99.90;;;;;;4997514;28;20655;-85
2023/08/31 11:52:55;;;;;;;4.63;1.50;;;19.90;99.90;;;;;;4997792;28;20548;-85
2023/08/31 11:55:21;;;;;;;4.50;1.80;;;19.80;99.90;;;;;;4998064;28;20172;-84
2023/08/31 11:57:51;;;;;;;5.00;1.80;;;19.80;99.90;;;;;;5014999;28;20634;-84
2023/08/31 12:00:19;;;;;;;4.50;2.10;;;19.70;99.90;;;;;;5015340;28;20170;-85
2023/08/31 12:02:48;;;;;;;4.90;2.03;;;19.70;99.90;;;;;;4996705;28;20213;-85
2023/08/31 12:05:14;;;;;;;7.60;2.23;;;19.70;99.90;;;;;;5015995;28;20170;-86
2023/08/31 12:07:41;;;;;;;6.13;1.90;;;19.80;99.90;;;;;;4998247;28;20272;-85
2023/08/31 12:10:09;;;;;;;5.43;2.30;;;20.00;99.90;;;;;;4997061;28;20183;-86
2023/08/31 12:12:34;;;;;;;4.80;2.10;;;20.00;99.90;;;;;;4997299;28;20185;-85
2023/08/31 12:15:03;;;;;;;6.93;2.40;;;20.00;99.90;;;;;;5015115;28;20621;-87
2023/08/31 12:17:32;;;;;;;6.47;2.20;;;19.90;99.90;;;;;;4997206;28;20213;-82
2023/08/31 12:20:05;;;;;;;7.37;2.63;;;19.90;99.90;;;;;;4997293;28;20577;-86
2023/08/31 12:22:31;;;;;;;7.30;2.30;;;19.80;99.90;;;;;;4997668;28;20180;-89
2023/08/31 12:24:57;;;;;;;6.43;2.33;;;19.70;99.90;;;;;;4997595;28;20172;-84
2023/08/31 12:27:22;;;;;;;6.47;2.10;;;19.70;99.90;;;;;;4996781;28;20678;-83
2023/08/31 12:29:49;;;;;;;4.20;1.93;;;19.70;99.90;;;;;;5014685;28;20170;-86
2023/08/31 12:32:15;;;;;;;7.07;2.57;;;19.90;99.90;;;;;;4997113;28;20637;-83
2023/08/31 12:34:41;;;;;;;6.40;2.27;;;19.80;99.90;;;;;;4997366;28;20232;-83
2023/08/31 12:37:07;;;;;;;7.17;2.73;;;19.70;99.90;;;;;;4997826;28;20182;-88
2023/08/31 12:39:33;;;;;;;5.67;2.47;;;19.80;99.90;;;;;;4996921;28;20563;-84
2023/08/31 12:41:59;;;;;;;4.93;1.83;;;19.80;99.90;;;;;;4997546;28;20641;-87
2023/08/31 12:44:25;;;;;;;5.57;2.00;;;19.60;99.90;;;;;;4998160;28;20187;-85
2023/08/31 12:46:52;;;;;;;5.93;2.20;;;19.70;99.90;;;;;;4997099;28;20174;-84